sensor_id;sensor_type;location;lat;lon;timestamp;P1;durP1;ratioP1;P2;durP2;ratioP2
72439;SDS011;60446;50.752;4.352;2023-08-17T00:01:22;6.72;;;2.95;;
72439;SDS011;60446;50.752;4.352;2023-08-17T00:04:03;5.80;;;2.30;;
72439;SDS011;60446;50.752;4.352;2023-08-17T00:06:33;6.53;;;2.22;;
72439;SDS011;60446;50.752;4.352;2023-08-17T00:09:05;8.77;;;2.53;;
72439;SDS011;60446;50.752;4.352;2023-08-17T00:11:38;7.13;;;2.40;;
72439;SDS011;60446;50.752;4.352;2023-08-17T00:14:09;8.00;;;2.47;;
72439;SDS011;60446;50.752;4.352;2023-08-17T00:16:36;6.88;;;2.60;;
72439;SDS011;60446;50.752;4.352;2023-08-17T00:19:13;5.55;;;2.00;;
72439;SDS011;60446;50.752;4.352;2023-08-17T00:21:51;6.45;;;2.05;;
72439;SDS011;60446;50.752;4.352;2023-08-17T00:24:26;5.97;;;1.77;;
72439;SDS011;60446;50.752;4.352;2023-08-17T00:27:03;7.45;;;2.42;;
72439;SDS011;60446;50.752;4.352;2023-08-17T00:29:40;6.32;;;2.30;;
72439;SDS011;60446;50.752;4.352;2023-08-17T00:32:18;9.45;;;2.22;;
72439;SDS011;60446;50.752;4.352;2023-08-17T00:34:49;6.15;;;2.30;;
72439;SDS011;60446;50.752;4.352;2023-08-17T00:37:22;7.43;;;2.37;;
72439;SDS011;60446;50.752;4.352;2023-08-17T00:40:01;5.38;;;2.10;;
72439;SDS011;60446;50.752;4.352;2023-08-17T00:42:41;9.52;;;1.98;;
72439;SDS011;60446;50.752;4.352;2023-08-17T00:45:08;6.95;;;1.85;;
72439;SDS011;60446;50.752;4.352;2023-08-17T00:47:41;6.32;;;2.10;;
72439;SDS011;60446;50.752;4.352;2023-08-17T00:50:19;5.23;;;1.83;;
72439;SDS011;60446;50.752;4.352;2023-08-17T00:52:59;7.72;;;2.17;;
72439;SDS011;60446;50.752;4.352;2023-08-17T00:55:35;7.75;;;2.40;;
72439;SDS011;60446;50.752;4.352;2023-08-17T00:58:05;6.28;;;2.10;;
72439;SDS011;60446;50.752;4.352;2023-08-17T01:00:42;5.90;;;2.30;;
72439;SDS011;60446;50.752;4.352;2023-08-17T01:03:15;6.67;;;2.00;;
72439;SDS011;60446;50.752;4.352;2023-08-17T01:05:47;6.50;;;2.35;;
72439;SDS011;60446;50.752;4.352;2023-08-17T01:08:18;7.07;;;1.95;;
72439;SDS011;60446;50.752;4.352;2023-08-17T01:13:54;6.60;;;2.45;;
72439;SDS011;60446;50.752;4.352;2023-08-17T01:16:55;5.70;;;2.10;;
72439;SDS011;60446;50.752;4.352;2023-08-17T01:19:35;7.03;;;2.08;;
72439;SDS011;60446;50.752;4.352;2023-08-17T01:22:05;7.32;;;2.50;;
72439;SDS011;60446;50.752;4.352;2023-08-17T01:24:40;6.50;;;2.28;;
72439;SDS011;60446;50.752;4.352;2023-08-17T01:27:14;6.45;;;2.50;;
72439;SDS011;60446;50.752;4.352;2023-08-17T01:29:46;6.00;;;2.70;;
72439;SDS011;60446;50.752;4.352;2023-08-17T01:32:30;7.22;;;2.50;;
72439;SDS011;60446;50.752;4.352;2023-08-17T01:35:28;6.85;;;2.22;;
72439;SDS011;60446;50.752;4.352;2023-08-17T01:37:58;6.88;;;2.80;;
72439;SDS011;60446;50.752;4.352;2023-08-17T01:40:32;7.55;;;2.53;;
72439;SDS011;60446;50.752;4.352;2023-08-17T01:43:12;7.93;;;2.50;;
72439;SDS011;60446;50.752;4.352;2023-08-17T01:45:45;5.28;;;2.30;;
72439;SDS011;60446;50.752;4.352;2023-08-17T01:48:24;7.07;;;2.30;;
72439;SDS011;60446;50.752;4.352;2023-08-17T01:50:54;6.15;;;2.63;;
72439;SDS011;60446;50.752;4.352;2023-08-17T01:53:24;9.90;;;2.80;;
72439;SDS011;60446;50.752;4.352;2023-08-17T01:56:02;6.37;;;2.50;;
72439;SDS011;60446;50.752;4.352;2023-08-17T01:58:33;9.65;;;2.85;;
72439;SDS011;60446;50.752;4.352;2023-08-17T02:01:11;6.53;;;2.35;;
72439;SDS011;60446;50.752;4.352;2023-08-17T02:03:49;6.28;;;2.63;;
72439;SDS011;60446;50.752;4.352;2023-08-17T02:06:20;6.70;;;2.67;;
72439;SDS011;60446;50.752;4.352;2023-08-17T02:08:48;7.13;;;3.13;;
72439;SDS011;60446;50.752;4.352;2023-08-17T02:11:21;8.93;;;2.63;;
72439;SDS011;60446;50.752;4.352;2023-08-17T02:13:51;7.07;;;2.60;;
72439;SDS011;60446;50.752;4.352;2023-08-17T02:16:23;9.07;;;2.83;;
72439;SDS011;60446;50.752;4.352;2023-08-17T02:18:58;7.70;;;2.97;;
72439;SDS011;60446;50.752;4.352;2023-08-17T02:21:33;8.97;;;2.73;;
72439;SDS011;60446;50.752;4.352;2023-08-17T02:24:13;7.20;;;3.35;;
72439;SDS011;60446;50.752;4.352;2023-08-17T02:26:42;8.15;;;2.60;;
72439;SDS011;60446;50.752;4.352;2023-08-17T02:29:28;6.53;;;2.60;;
72439;SDS011;60446;50.752;4.352;2023-08-17T02:31:58;8.65;;;3.13;;
72439;SDS011;60446;50.752;4.352;2023-08-17T02:34:31;7.57;;;3.10;;
72439;SDS011;60446;50.752;4.352;2023-08-17T02:37:03;7.80;;;3.35;;
72439;SDS011;60446;50.752;4.352;2023-08-17T02:39:32;9.80;;;3.28;;
72439;SDS011;60446;50.752;4.352;2023-08-17T02:42:02;7.22;;;3.05;;
72439;SDS011;60446;50.752;4.352;2023-08-17T02:44:32;6.78;;;3.38;;
72439;SDS011;60446;50.752;4.352;2023-08-17T02:47:15;7.47;;;2.60;;
72439;SDS011;60446;50.752;4.352;2023-08-17T02:49:43;8.38;;;3.03;;
72439;SDS011;60446;50.752;4.352;2023-08-17T02:52:16;7.55;;;2.85;;
72439;SDS011;60446;50.752;4.352;2023-08-17T02:54:43;6.85;;;2.90;;
72439;SDS011;60446;50.752;4.352;2023-08-17T02:57:11;7.13;;;3.13;;
72439;SDS011;60446;50.752;4.352;2023-08-17T03:00:00;7.87;;;2.80;;
72439;SDS011;60446;50.752;4.352;2023-08-17T03:02:28;6.93;;;3.22;;
72439;SDS011;60446;50.752;4.352;2023-08-17T03:05:01;6.00;;;2.75;;
72439;SDS011;60446;50.752;4.352;2023-08-17T03:07:45;6.80;;;2.88;;
72439;SDS011;60446;50.752;4.352;2023-08-17T03:10:36;6.68;;;3.08;;
72439;SDS011;60446;50.752;4.352;2023-08-17T03:13:08;8.37;;;2.87;;
72439;SDS011;60446;50.752;4.352;2023-08-17T03:15:35;7.38;;;2.80;;
72439;SDS011;60446;50.752;4.352;2023-08-17T03:18:07;7.03;;;2.75;;
72439;SDS011;60446;50.752;4.352;2023-08-17T03:20:37;7.80;;;3.22;;
72439;SDS011;60446;50.752;4.352;2023-08-17T03:23:05;6.90;;;2.58;;
72439;SDS011;60446;50.752;4.352;2023-08-17T03:25:34;7.93;;;2.80;;
72439;SDS011;60446;50.752;4.352;2023-08-17T03:28:07;6.90;;;2.53;;
72439;SDS011;60446;50.752;4.352;2023-08-17T03:30:45;6.35;;;2.63;;
72439;SDS011;60446;50.752;4.352;2023-08-17T03:33:14;9.35;;;2.70;;
72439;SDS011;60446;50.752;4.352;2023-08-17T03:35:56;6.93;;;3.05;;
72439;SDS011;60446;50.752;4.352;2023-08-17T03:38:27;8.50;;;3.30;;
72439;SDS011;60446;50.752;4.352;2023-08-17T03:40:59;8.73;;;2.58;;
72439;SDS011;60446;50.752;4.352;2023-08-17T03:43:38;7.38;;;2.90;;
72439;SDS011;60446;50.752;4.352;2023-08-17T03:46:07;7.15;;;2.60;;
72439;SDS011;60446;50.752;4.352;2023-08-17T03:48:39;7.20;;;2.85;;
72439;SDS011;60446;50.752;4.352;2023-08-17T03:51:10;9.60;;;2.70;;
72439;SDS011;60446;50.752;4.352;2023-08-17T03:53:41;19.08;;;6.35;;
72439;SDS011;60446;50.752;4.352;2023-08-17T03:56:13;8.20;;;3.10;;
72439;SDS011;60446;50.752;4.352;2023-08-17T03:58:48;10.00;;;2.97;;
72439;SDS011;60446;50.752;4.352;2023-08-17T04:01:19;6.55;;;2.58;;
72439;SDS011;60446;50.752;4.352;2023-08-17T04:03:52;8.57;;;2.77;;
72439;SDS011;60446;50.752;4.352;2023-08-17T04:06:37;6.93;;;2.78;;
72439;SDS011;60446;50.752;4.352;2023-08-17T04:09:24;6.22;;;2.42;;
72439;SDS011;60446;50.752;4.352;2023-08-17T04:12:15;8.38;;;2.90;;
72439;SDS011;60446;50.752;4.352;2023-08-17T04:14:49;7.15;;;2.60;;
72439;SDS011;60446;50.752;4.352;2023-08-17T04:17:23;10.33;;;3.30;;
72439;SDS011;60446;50.752;4.352;2023-08-17T04:19:59;7.50;;;2.80;;
72439;SDS011;60446;50.752;4.352;2023-08-17T04:22:37;6.88;;;2.50;;
72439;SDS011;60446;50.752;4.352;2023-08-17T04:25:21;7.53;;;2.88;;
72439;SDS011;60446;50.752;4.352;2023-08-17T04:28:03;9.50;;;3.00;;
72439;SDS011;60446;50.752;4.352;2023-08-17T04:30:34;11.47;;;2.70;;
72439;SDS011;60446;50.752;4.352;2023-08-17T04:33:22;8.95;;;3.70;;
72439;SDS011;60446;50.752;4.352;2023-08-17T04:35:55;10.88;;;3.70;;
72439;SDS011;60446;50.752;4.352;2023-08-17T04:38:30;7.45;;;2.67;;
72439;SDS011;60446;50.752;4.352;2023-08-17T04:41:17;8.68;;;2.75;;
72439;SDS011;60446;50.752;4.352;2023-08-17T04:43:46;9.83;;;3.37;;
72439;SDS011;60446;50.752;4.352;2023-08-17T04:46:18;6.97;;;3.03;;
72439;SDS011;60446;50.752;4.352;2023-08-17T04:48:57;6.75;;;2.80;;
72439;SDS011;60446;50.752;4.352;2023-08-17T04:51:35;10.05;;;2.60;;
72439;SDS011;60446;50.752;4.352;2023-08-17T04:54:04;8.10;;;2.85;;
72439;SDS011;60446;50.752;4.352;2023-08-17T04:56:39;7.63;;;2.30;;
72439;SDS011;60446;50.752;4.352;2023-08-17T04:59:21;13.52;;;3.05;;
72439;SDS011;60446;50.752;4.352;2023-08-17T05:01:59;7.20;;;2.70;;
72439;SDS011;60446;50.752;4.352;2023-08-17T05:04:29;9.05;;;2.92;;
72439;SDS011;60446;50.752;4.352;2023-08-17T05:06:59;7.75;;;2.65;;
72439;SDS011;60446;50.752;4.352;2023-08-17T05:09:39;6.82;;;2.33;;
72439;SDS011;60446;50.752;4.352;2023-08-17T05:12:08;6.63;;;2.67;;
72439;SDS011;60446;50.752;4.352;2023-08-17T05:14:45;5.83;;;2.33;;
72439;SDS011;60446;50.752;4.352;2023-08-17T05:17:25;7.30;;;2.90;;
72439;SDS011;60446;50.752;4.352;2023-08-17T05:19:55;7.07;;;2.95;;
72439;SDS011;60446;50.752;4.352;2023-08-17T05:22:34;6.78;;;2.70;;
72439;SDS011;60446;50.752;4.352;2023-08-17T05:25:24;7.72;;;2.53;;
72439;SDS011;60446;50.752;4.352;2023-08-17T05:28:00;9.07;;;2.83;;
72439;SDS011;60446;50.752;4.352;2023-08-17T05:30:35;6.22;;;2.67;;
72439;SDS011;60446;50.752;4.352;2023-08-17T05:33:07;6.50;;;2.72;;
72439;SDS011;60446;50.752;4.352;2023-08-17T05:35:42;7.70;;;2.78;;
72439;SDS011;60446;50.752;4.352;2023-08-17T05:38:40;8.20;;;2.70;;
72439;SDS011;60446;50.752;4.352;2023-08-17T05:41:19;11.47;;;2.60;;
72439;SDS011;60446;50.752;4.352;2023-08-17T05:43:55;6.65;;;2.83;;
72439;SDS011;60446;50.752;4.352;2023-08-17T05:46:29;8.65;;;2.80;;
72439;SDS011;60446;50.752;4.352;2023-08-17T05:49:06;7.90;;;2.67;;
72439;SDS011;60446;50.752;4.352;2023-08-17T05:51:43;11.75;;;3.38;;
72439;SDS011;60446;50.752;4.352;2023-08-17T05:54:17;7.90;;;2.60;;
72439;SDS011;60446;50.752;4.352;2023-08-17T05:57:03;9.27;;;3.03;;
72439;SDS011;60446;50.752;4.352;2023-08-17T05:59:44;7.22;;;2.63;;
72439;SDS011;60446;50.752;4.352;2023-08-17T06:02:20;8.90;;;2.50;;
72439;SDS011;60446;50.752;4.352;2023-08-17T06:04:50;7.70;;;2.80;;
72439;SDS011;60446;50.752;4.352;2023-08-17T06:07:28;7.07;;;3.20;;
72439;SDS011;60446;50.752;4.352;2023-08-17T06:10:29;8.30;;;3.08;;
72439;SDS011;60446;50.752;4.352;2023-08-17T06:13:07;11.98;;;3.10;;
72439;SDS011;60446;50.752;4.352;2023-08-17T06:15:34;8.60;;;2.67;;
72439;SDS011;60446;50.752;4.352;2023-08-17T06:21:41;8.37;;;2.70;;
72439;SDS011;60446;50.752;4.352;2023-08-17T06:24:32;9.55;;;2.85;;
72439;SDS011;60446;50.752;4.352;2023-08-17T06:27:07;8.30;;;3.15;;
72439;SDS011;60446;50.752;4.352;2023-08-17T06:29:44;10.77;;;2.92;;
72439;SDS011;60446;50.752;4.352;2023-08-17T06:32:18;9.02;;;2.80;;
72439;SDS011;60446;50.752;4.352;2023-08-17T06:35:02;10.07;;;2.90;;
72439;SDS011;60446;50.752;4.352;2023-08-17T06:37:48;8.98;;;3.00;;
72439;SDS011;60446;50.752;4.352;2023-08-17T06:40:41;7.65;;;2.65;;
72439;SDS011;60446;50.752;4.352;2023-08-17T06:43:09;10.15;;;2.95;;
72439;SDS011;60446;50.752;4.352;2023-08-17T06:45:46;8.15;;;2.70;;
72439;SDS011;60446;50.752;4.352;2023-08-17T06:48:18;9.50;;;2.53;;
72439;SDS011;60446;50.752;4.352;2023-08-17T06:50:46;6.45;;;2.45;;
72439;SDS011;60446;50.752;4.352;2023-08-17T06:53:16;8.35;;;2.80;;
72439;SDS011;60446;50.752;4.352;2023-08-17T06:55:44;7.38;;;2.60;;
72439;SDS011;60446;50.752;4.352;2023-08-17T06:58:11;9.70;;;2.80;;
72439;SDS011;60446;50.752;4.352;2023-08-17T07:00:38;7.37;;;2.77;;
72439;SDS011;60446;50.752;4.352;2023-08-17T07:03:07;8.85;;;3.25;;
72439;SDS011;60446;50.752;4.352;2023-08-17T07:05:34;11.45;;;3.00;;
72439;SDS011;60446;50.752;4.352;2023-08-17T07:08:05;8.15;;;3.20;;
72439;SDS011;60446;50.752;4.352;2023-08-17T07:10:33;11.45;;;3.63;;
72439;SDS011;60446;50.752;4.352;2023-08-17T07:13:01;8.80;;;3.33;;
72439;SDS011;60446;50.752;4.352;2023-08-17T07:15:31;13.43;;;4.05;;
72439;SDS011;60446;50.752;4.352;2023-08-17T07:18:00;11.73;;;4.50;;
72439;SDS011;60446;50.752;4.352;2023-08-17T07:20:31;12.52;;;4.13;;
72439;SDS011;60446;50.752;4.352;2023-08-17T07:22:59;10.82;;;3.78;;
72439;SDS011;60446;50.752;4.352;2023-08-17T07:25:32;10.43;;;3.57;;
72439;SDS011;60446;50.752;4.352;2023-08-17T07:28:03;10.13;;;3.55;;
72439;SDS011;60446;50.752;4.352;2023-08-17T07:30:34;10.93;;;3.95;;
72439;SDS011;60446;50.752;4.352;2023-08-17T07:33:05;9.70;;;3.75;;
72439;SDS011;60446;50.752;4.352;2023-08-17T07:35:35;9.93;;;4.07;;
72439;SDS011;60446;50.752;4.352;2023-08-17T07:38:03;11.27;;;4.07;;
72439;SDS011;60446;50.752;4.352;2023-08-17T07:40:37;12.70;;;3.88;;
72439;SDS011;60446;50.752;4.352;2023-08-17T07:43:12;11.30;;;3.90;;
72439;SDS011;60446;50.752;4.352;2023-08-17T07:45:43;10.55;;;4.05;;
72439;SDS011;60446;50.752;4.352;2023-08-17T07:48:16;10.52;;;4.00;;
72439;SDS011;60446;50.752;4.352;2023-08-17T07:50:47;12.23;;;4.07;;
72439;SDS011;60446;50.752;4.352;2023-08-17T07:53:19;11.20;;;4.40;;
72439;SDS011;60446;50.752;4.352;2023-08-17T07:55:46;11.35;;;4.60;;
72439;SDS011;60446;50.752;4.352;2023-08-17T07:58:16;12.15;;;4.57;;
72439;SDS011;60446;50.752;4.352;2023-08-17T08:00:43;13.77;;;4.90;;
72439;SDS011;60446;50.752;4.352;2023-08-17T08:03:11;10.97;;;4.23;;
72439;SDS011;60446;50.752;4.352;2023-08-17T08:05:38;19.13;;;4.43;;
72439;SDS011;60446;50.752;4.352;2023-08-17T08:08:06;12.25;;;4.80;;
72439;SDS011;60446;50.752;4.352;2023-08-17T08:10:36;10.70;;;4.35;;
72439;SDS011;60446;50.752;4.352;2023-08-17T08:13:03;11.90;;;4.28;;
72439;SDS011;60446;50.752;4.352;2023-08-17T08:15:37;15.37;;;4.50;;
72439;SDS011;60446;50.752;4.352;2023-08-17T08:18:05;11.45;;;4.70;;
72439;SDS011;60446;50.752;4.352;2023-08-17T08:20:36;14.63;;;4.70;;
72439;SDS011;60446;50.752;4.352;2023-08-17T08:23:04;13.30;;;4.60;;
72439;SDS011;60446;50.752;4.352;2023-08-17T08:25:36;9.75;;;4.13;;
72439;SDS011;60446;50.752;4.352;2023-08-17T08:28:07;11.50;;;4.40;;
72439;SDS011;60446;50.752;4.352;2023-08-17T08:30:35;11.55;;;4.53;;
72439;SDS011;60446;50.752;4.352;2023-08-17T08:33:03;13.23;;;5.68;;
72439;SDS011;60446;50.752;4.352;2023-08-17T08:35:30;11.35;;;5.10;;
72439;SDS011;60446;50.752;4.352;2023-08-17T08:37:58;14.15;;;4.90;;
72439;SDS011;60446;50.752;4.352;2023-08-17T08:40:29;11.90;;;4.57;;
72439;SDS011;60446;50.752;4.352;2023-08-17T08:42:57;13.48;;;5.30;;
72439;SDS011;60446;50.752;4.352;2023-08-17T08:45:24;11.85;;;5.32;;
72439;SDS011;60446;50.752;4.352;2023-08-17T08:47:55;14.38;;;5.43;;
72439;SDS011;60446;50.752;4.352;2023-08-17T08:50:24;16.35;;;6.13;;
72439;SDS011;60446;50.752;4.352;2023-08-17T08:53:02;13.97;;;5.73;;
72439;SDS011;60446;50.752;4.352;2023-08-17T08:55:34;14.55;;;5.93;;
72439;SDS011;60446;50.752;4.352;2023-08-17T08:58:10;12.90;;;5.53;;
72439;SDS011;60446;50.752;4.352;2023-08-17T09:00:39;14.32;;;5.07;;
72439;SDS011;60446;50.752;4.352;2023-08-17T09:03:10;15.82;;;5.95;;
72439;SDS011;60446;50.752;4.352;2023-08-17T09:05:40;15.03;;;5.60;;
72439;SDS011;60446;50.752;4.352;2023-08-17T09:08:11;13.18;;;5.07;;
72439;SDS011;60446;50.752;4.352;2023-08-17T09:10:43;13.63;;;5.65;;
72439;SDS011;60446;50.752;4.352;2023-08-17T09:13:10;15.50;;;5.75;;
72439;SDS011;60446;50.752;4.352;2023-08-17T09:15:37;16.02;;;5.70;;
72439;SDS011;60446;50.752;4.352;2023-08-17T09:18:05;16.77;;;5.83;;
72439;SDS011;60446;50.752;4.352;2023-08-17T09:20:43;16.30;;;6.43;;
72439;SDS011;60446;50.752;4.352;2023-08-17T09:23:18;14.10;;;5.20;;
72439;SDS011;60446;50.752;4.352;2023-08-17T09:25:49;14.70;;;5.18;;
72439;SDS011;60446;50.752;4.352;2023-08-17T09:28:24;13.40;;;5.80;;
72439;SDS011;60446;50.752;4.352;2023-08-17T09:33:31;15.77;;;6.57;;
72439;SDS011;60446;50.752;4.352;2023-08-17T09:36:25;17.20;;;6.80;;
72439;SDS011;60446;50.752;4.352;2023-08-17T09:39:00;13.45;;;6.35;;
72439;SDS011;60446;50.752;4.352;2023-08-17T09:41:30;15.82;;;6.18;;
72439;SDS011;60446;50.752;4.352;2023-08-17T09:44:09;15.17;;;6.13;;
72439;SDS011;60446;50.752;4.352;2023-08-17T09:46:42;14.75;;;5.72;;
72439;SDS011;60446;50.752;4.352;2023-08-17T09:49:17;12.32;;;5.88;;
72439;SDS011;60446;50.752;4.352;2023-08-17T09:51:45;15.00;;;6.00;;
72439;SDS011;60446;50.752;4.352;2023-08-17T09:54:20;13.32;;;5.28;;
72439;SDS011;60446;50.752;4.352;2023-08-17T09:56:53;13.17;;;5.60;;
72439;SDS011;60446;50.752;4.352;2023-08-17T09:59:24;12.38;;;5.65;;
72439;SDS011;60446;50.752;4.352;2023-08-17T10:01:57;14.50;;;5.68;;
72439;SDS011;60446;50.752;4.352;2023-08-17T10:04:26;11.85;;;5.35;;
72439;SDS011;60446;50.752;4.352;2023-08-17T10:07:03;12.43;;;5.53;;
72439;SDS011;60446;50.752;4.352;2023-08-17T10:09:34;15.33;;;5.40;;
72439;SDS011;60446;50.752;4.352;2023-08-17T10:12:09;14.10;;;5.55;;
72439;SDS011;60446;50.752;4.352;2023-08-17T10:14:45;12.77;;;5.32;;
72439;SDS011;60446;50.752;4.352;2023-08-17T10:17:19;15.68;;;5.70;;
72439;SDS011;60446;50.752;4.352;2023-08-17T10:19:55;14.07;;;6.18;;
72439;SDS011;60446;50.752;4.352;2023-08-17T10:22:26;13.13;;;5.77;;
72439;SDS011;60446;50.752;4.352;2023-08-17T10:25:09;11.10;;;4.93;;
72439;SDS011;60446;50.752;4.352;2023-08-17T10:27:40;13.82;;;5.43;;
72439;SDS011;60446;50.752;4.352;2023-08-17T10:30:11;14.45;;;5.90;;
72439;SDS011;60446;50.752;4.352;2023-08-17T10:32:39;15.25;;;5.75;;
72439;SDS011;60446;50.752;4.352;2023-08-17T10:35:12;16.67;;;6.03;;
72439;SDS011;60446;50.752;4.352;2023-08-17T10:37:41;14.77;;;5.85;;
72439;SDS011;60446;50.752;4.352;2023-08-17T10:40:09;12.38;;;5.53;;
72439;SDS011;60446;50.752;4.352;2023-08-17T10:42:47;11.13;;;5.57;;
72439;SDS011;60446;50.752;4.352;2023-08-17T10:45:26;13.65;;;6.00;;
72439;SDS011;60446;50.752;4.352;2023-08-17T10:50:35;17.27;;;7.07;;
72439;SDS011;60446;50.752;4.352;2023-08-17T10:53:10;15.68;;;7.25;;
72439;SDS011;60446;50.752;4.352;2023-08-17T10:55:44;17.25;;;6.50;;
72439;SDS011;60446;50.752;4.352;2023-08-17T10:58:18;14.70;;;6.18;;
72439;SDS011;60446;50.752;4.352;2023-08-17T11:00:48;15.83;;;6.60;;
72439;SDS011;60446;50.752;4.352;2023-08-17T11:03:22;14.52;;;6.55;;
72439;SDS011;60446;50.752;4.352;2023-08-17T11:05:55;13.80;;;6.18;;
72439;SDS011;60446;50.752;4.352;2023-08-17T11:08:39;15.55;;;5.95;;
72439;SDS011;60446;50.752;4.352;2023-08-17T11:11:19;19.08;;;8.20;;
72439;SDS011;60446;50.752;4.352;2023-08-17T11:13:49;15.37;;;6.53;;
72439;SDS011;60446;50.752;4.352;2023-08-17T11:16:22;16.38;;;6.80;;
72439;SDS011;60446;50.752;4.352;2023-08-17T11:18:51;17.08;;;6.93;;
72439;SDS011;60446;50.752;4.352;2023-08-17T11:21:19;16.83;;;7.47;;
72439;SDS011;60446;50.752;4.352;2023-08-17T11:23:46;14.23;;;6.93;;
72439;SDS011;60446;50.752;4.352;2023-08-17T11:26:18;15.43;;;6.57;;
72439;SDS011;60446;50.752;4.352;2023-08-17T11:28:46;17.30;;;7.03;;
72439;SDS011;60446;50.752;4.352;2023-08-17T11:31:13;16.83;;;7.20;;
72439;SDS011;60446;50.752;4.352;2023-08-17T11:33:44;17.50;;;8.07;;
72439;SDS011;60446;50.752;4.352;2023-08-17T11:36:16;17.25;;;8.35;;
72439;SDS011;60446;50.752;4.352;2023-08-17T11:38:43;15.67;;;7.70;;
72439;SDS011;60446;50.752;4.352;2023-08-17T11:41:11;16.63;;;7.43;;
72439;SDS011;60446;50.752;4.352;2023-08-17T11:43:42;18.60;;;7.95;;
72439;SDS011;60446;50.752;4.352;2023-08-17T11:46:09;14.38;;;7.35;;
72439;SDS011;60446;50.752;4.352;2023-08-17T11:48:38;16.35;;;7.22;;
72439;SDS011;60446;50.752;4.352;2023-08-17T11:51:05;15.70;;;7.63;;
72439;SDS011;60446;50.752;4.352;2023-08-17T11:53:36;16.90;;;7.63;;
72439;SDS011;60446;50.752;4.352;2023-08-17T11:56:06;19.45;;;8.30;;
72439;SDS011;60446;50.752;4.352;2023-08-17T11:58:36;17.17;;;7.32;;
72439;SDS011;60446;50.752;4.352;2023-08-17T12:01:11;17.85;;;7.82;;
72439;SDS011;60446;50.752;4.352;2023-08-17T12:03:40;17.50;;;7.60;;
72439;SDS011;60446;50.752;4.352;2023-08-17T12:06:09;19.00;;;8.38;;
72439;SDS011;60446;50.752;4.352;2023-08-17T12:08:37;19.38;;;8.98;;
72439;SDS011;60446;50.752;4.352;2023-08-17T12:11:04;19.13;;;8.60;;
72439;SDS011;60446;50.752;4.352;2023-08-17T12:13:33;19.20;;;8.73;;
72439;SDS011;60446;50.752;4.352;2023-08-17T12:16:01;20.60;;;8.03;;
72439;SDS011;60446;50.752;4.352;2023-08-17T12:18:33;20.00;;;7.97;;
72439;SDS011;60446;50.752;4.352;2023-08-17T12:21:01;19.80;;;9.25;;
72439;SDS011;60446;50.752;4.352;2023-08-17T12:23:32;18.52;;;8.73;;
72439;SDS011;60446;50.752;4.352;2023-08-17T12:25:59;18.48;;;8.30;;
72439;SDS011;60446;50.752;4.352;2023-08-17T12:28:27;21.07;;;8.50;;
72439;SDS011;60446;50.752;4.352;2023-08-17T12:31:01;18.10;;;7.93;;
72439;SDS011;60446;50.752;4.352;2023-08-17T12:33:29;16.17;;;7.53;;
72439;SDS011;60446;50.752;4.352;2023-08-17T12:35:57;15.70;;;7.25;;
72439;SDS011;60446;50.752;4.352;2023-08-17T12:38:25;14.70;;;7.32;;
72439;SDS011;60446;50.752;4.352;2023-08-17T12:40:58;16.37;;;7.20;;
72439;SDS011;60446;50.752;4.352;2023-08-17T12:43:33;16.95;;;7.72;;
72439;SDS011;60446;50.752;4.352;2023-08-17T12:46:03;16.48;;;7.53;;
72439;SDS011;60446;50.752;4.352;2023-08-17T12:48:34;16.80;;;7.93;;
72439;SDS011;60446;50.752;4.352;2023-08-17T12:51:08;15.98;;;7.55;;
72439;SDS011;60446;50.752;4.352;2023-08-17T12:53:35;16.50;;;7.87;;
72439;SDS011;60446;50.752;4.352;2023-08-17T12:56:03;16.20;;;8.40;;
72439;SDS011;60446;50.752;4.352;2023-08-17T12:58:31;16.10;;;8.25;;
72439;SDS011;60446;50.752;4.352;2023-08-17T13:00:59;14.23;;;7.28;;
72439;SDS011;60446;50.752;4.352;2023-08-17T13:03:27;16.17;;;8.48;;
72439;SDS011;60446;50.752;4.352;2023-08-17T13:05:54;16.10;;;8.40;;
72439;SDS011;60446;50.752;4.352;2023-08-17T13:08:30;15.57;;;8.10;;
72439;SDS011;60446;50.752;4.352;2023-08-17T13:11:04;15.00;;;7.93;;
72439;SDS011;60446;50.752;4.352;2023-08-17T13:13:32;15.60;;;8.60;;
72439;SDS011;60446;50.752;4.352;2023-08-17T13:16:01;16.60;;;8.50;;
72439;SDS011;60446;50.752;4.352;2023-08-17T13:18:35;18.07;;;8.30;;
72439;SDS011;60446;50.752;4.352;2023-08-17T13:21:02;13.95;;;7.35;;
72439;SDS011;60446;50.752;4.352;2023-08-17T13:23:31;18.27;;;7.75;;
72439;SDS011;60446;50.752;4.352;2023-08-17T13:25:59;16.38;;;8.32;;
72439;SDS011;60446;50.752;4.352;2023-08-17T13:28:29;14.30;;;7.80;;
72439;SDS011;60446;50.752;4.352;2023-08-17T13:30:56;19.13;;;8.27;;
72439;SDS011;60446;50.752;4.352;2023-08-17T13:33:43;17.63;;;8.38;;
72439;SDS011;60446;50.752;4.352;2023-08-17T13:36:10;15.23;;;8.10;;
72439;SDS011;60446;50.752;4.352;2023-08-17T13:38:38;15.43;;;8.15;;
72439;SDS011;60446;50.752;4.352;2023-08-17T13:41:05;15.75;;;8.43;;
72439;SDS011;60446;50.752;4.352;2023-08-17T13:43:32;15.03;;;7.80;;
72439;SDS011;60446;50.752;4.352;2023-08-17T13:45:59;15.38;;;8.20;;
72439;SDS011;60446;50.752;4.352;2023-08-17T13:48:27;13.65;;;8.38;;
72439;SDS011;60446;50.752;4.352;2023-08-17T13:50:54;16.77;;;8.23;;
72439;SDS011;60446;50.752;4.352;2023-08-17T13:53:21;16.17;;;7.65;;
72439;SDS011;60446;50.752;4.352;2023-08-17T13:55:49;15.93;;;8.50;;
72439;SDS011;60446;50.752;4.352;2023-08-17T13:58:16;17.83;;;8.93;;
72439;SDS011;60446;50.752;4.352;2023-08-17T14:00:43;16.73;;;9.10;;
72439;SDS011;60446;50.752;4.352;2023-08-17T14:03:10;17.73;;;8.48;;
72439;SDS011;60446;50.752;4.352;2023-08-17T14:05:38;15.55;;;8.48;;
72439;SDS011;60446;50.752;4.352;2023-08-17T14:08:06;19.10;;;8.67;;
72439;SDS011;60446;50.752;4.352;2023-08-17T14:10:34;17.90;;;8.95;;
72439;SDS011;60446;50.752;4.352;2023-08-17T14:13:05;16.75;;;8.50;;
72439;SDS011;60446;50.752;4.352;2023-08-17T14:15:33;20.45;;;9.52;;
72439;SDS011;60446;50.752;4.352;2023-08-17T14:18:01;18.67;;;9.77;;
72439;SDS011;60446;50.752;4.352;2023-08-17T14:20:30;19.33;;;8.67;;
72439;SDS011;60446;50.752;4.352;2023-08-17T14:22:57;21.83;;;9.30;;
72439;SDS011;60446;50.752;4.352;2023-08-17T14:25:24;20.85;;;10.07;;
72439;SDS011;60446;50.752;4.352;2023-08-17T14:27:51;23.27;;;9.43;;
72439;SDS011;60446;50.752;4.352;2023-08-17T14:30:20;19.35;;;9.55;;
72439;SDS011;60446;50.752;4.352;2023-08-17T14:32:47;19.00;;;8.70;;
72439;SDS011;60446;50.752;4.352;2023-08-17T14:35:14;20.35;;;9.15;;
72439;SDS011;60446;50.752;4.352;2023-08-17T14:37:42;20.83;;;8.98;;
72439;SDS011;60446;50.752;4.352;2023-08-17T14:40:09;19.25;;;8.73;;
72439;SDS011;60446;50.752;4.352;2023-08-17T14:42:37;16.17;;;8.70;;
72439;SDS011;60446;50.752;4.352;2023-08-17T14:45:05;19.67;;;9.87;;
72439;SDS011;60446;50.752;4.352;2023-08-17T14:47:33;23.13;;;9.73;;
72439;SDS011;60446;50.752;4.352;2023-08-17T14:50:00;17.63;;;9.15;;
72439;SDS011;60446;50.752;4.352;2023-08-17T14:52:28;18.42;;;9.07;;
72439;SDS011;60446;50.752;4.352;2023-08-17T14:54:58;20.38;;;9.88;;
72439;SDS011;60446;50.752;4.352;2023-08-17T14:57:26;19.30;;;9.07;;
72439;SDS011;60446;50.752;4.352;2023-08-17T14:59:54;19.75;;;9.50;;
72439;SDS011;60446;50.752;4.352;2023-08-17T15:02:21;19.40;;;9.32;;
72439;SDS011;60446;50.752;4.352;2023-08-17T15:04:48;19.58;;;9.75;;
72439;SDS011;60446;50.752;4.352;2023-08-17T15:07:15;17.45;;;9.10;;
72439;SDS011;60446;50.752;4.352;2023-08-17T15:09:43;21.57;;;9.57;;
72439;SDS011;60446;50.752;4.352;2023-08-17T15:12:11;20.20;;;10.27;;
72439;SDS011;60446;50.752;4.352;2023-08-17T15:14:38;16.30;;;9.02;;
72439;SDS011;60446;50.752;4.352;2023-08-17T15:17:05;19.02;;;9.40;;
72439;SDS011;60446;50.752;4.352;2023-08-17T15:19:35;23.13;;;9.80;;
72439;SDS011;60446;50.752;4.352;2023-08-17T15:22:06;18.57;;;9.97;;
72439;SDS011;60446;50.752;4.352;2023-08-17T15:24:41;20.63;;;9.60;;